sensor_id;sensor_type;location;lat;lon;timestamp;temperature;humidity
79698;SHT31;69168;42.708;23.286;2023-05-24T00:01:47;15.45;64.33
79698;SHT31;69168;42.708;23.286;2023-05-24T00:04:13;15.39;64.40
79698;SHT31;69168;42.708;23.286;2023-05-24T00:06:40;15.31;64.73
79698;SHT31;69168;42.708;23.286;2023-05-24T00:09:06;15.27;64.84
79698;SHT31;69168;42.708;23.286;2023-05-24T00:11:32;15.22;65.04
79698;SHT31;69168;42.708;23.286;2023-05-24T00:13:57;15.24;64.99
79698;SHT31;69168;42.708;23.286;2023-05-24T00:16:23;15.21;64.89
79698;SHT31;69168;42.708;23.286;2023-05-24T00:18:48;15.11;64.98
79698;SHT31;69168;42.708;23.286;2023-05-24T00:21:14;15.04;65.28
79698;SHT31;69168;42.708;23.286;2023-05-24T00:23:40;15.10;65.19
79698;SHT31;69168;42.708;23.286;2023-05-24T00:26:07;15.08;65.44
79698;SHT31;69168;42.708;23.286;2023-05-24T00:28:33;15.04;65.63
79698;SHT31;69168;42.708;23.286;2023-05-24T00:30:58;15.10;65.35
79698;SHT31;69168;42.708;23.286;2023-05-24T00:33:24;15.07;65.06
79698;SHT31;69168;42.708;23.286;2023-05-24T00:35:50;15.00;65.48
79698;SHT31;69168;42.708;23.286;2023-05-24T00:38:24;15.12;64.98
79698;SHT31;69168;42.708;23.286;2023-05-24T00:40:49;15.07;64.79
79698;SHT31;69168;42.708;23.286;2023-05-24T00:43:15;15.04;64.93
79698;SHT31;69168;42.708;23.286;2023-05-24T00:45:41;14.98;65.16
79698;SHT31;69168;42.708;23.286;2023-05-24T00:48:07;14.94;65.17
79698;SHT31;69168;42.708;23.286;2023-05-24T00:50:33;14.97;65.48
79698;SHT31;69168;42.708;23.286;2023-05-24T00:53:03;14.97;65.85
79698;SHT31;69168;42.708;23.286;2023-05-24T00:55:29;14.86;64.75
79698;SHT31;69168;42.708;23.286;2023-05-24T00:57:57;14.83;64.46
79698;SHT31;69168;42.708;23.286;2023-05-24T01:00:24;14.77;64.89
79698;SHT31;69168;42.708;23.286;2023-05-24T01:02:50;14.79;64.77
79698;SHT31;69168;42.708;23.286;2023-05-24T01:05:16;14.87;64.23
79698;SHT31;69168;42.708;23.286;2023-05-24T01:16:14;14.46;65.72
79698;SHT31;69168;42.708;23.286;2023-05-24T01:18:46;14.40;66.03
79698;SHT31;69168;42.708;23.286;2023-05-24T01:21:40;14.40;65.72
79698;SHT31;69168;42.708;23.286;2023-05-24T01:24:36;14.26;65.94
79698;SHT31;69168;42.708;23.286;2023-05-24T01:27:13;14.36;66.38
79698;SHT31;69168;42.708;23.286;2023-05-24T01:29:39;14.39;66.18
79698;SHT31;69168;42.708;23.286;2023-05-24T01:32:06;14.35;66.35
79698;SHT31;69168;42.708;23.286;2023-05-24T01:34:31;14.39;66.19
79698;SHT31;69168;42.708;23.286;2023-05-24T01:36:57;14.43;65.95
79698;SHT31;69168;42.708;23.286;2023-05-24T01:39:24;14.33;65.93
79698;SHT31;69168;42.708;23.286;2023-05-24T01:45:02;14.22;66.87
79698;SHT31;69168;42.708;23.286;2023-05-24T01:48:01;14.22;66.63
79698;SHT31;69168;42.708;23.286;2023-05-24T01:50:34;14.29;65.93
79698;SHT31;69168;42.708;23.286;2023-05-24T01:53:08;14.20;65.94
79698;SHT31;69168;42.708;23.286;2023-05-24T01:55:37;14.26;65.71
79698;SHT31;69168;42.708;23.286;2023-05-24T01:58:05;14.12;66.06
79698;SHT31;69168;42.708;23.286;2023-05-24T02:00:32;14.11;66.07
79698;SHT31;69168;42.708;23.286;2023-05-24T02:03:00;14.03;66.41
79698;SHT31;69168;42.708;23.286;2023-05-24T02:05:26;14.07;66.40
79698;SHT31;69168;42.708;23.286;2023-05-24T02:07:51;14.12;66.43
79698;SHT31;69168;42.708;23.286;2023-05-24T02:10:17;14.08;66.30
79698;SHT31;69168;42.708;23.286;2023-05-24T02:12:42;14.07;66.36
79698;SHT31;69168;42.708;23.286;2023-05-24T02:15:08;14.00;66.82
79698;SHT31;69168;42.708;23.286;2023-05-24T02:17:34;14.03;66.77
79698;SHT31;69168;42.708;23.286;2023-05-24T02:20:00;14.08;66.97
79698;SHT31;69168;42.708;23.286;2023-05-24T02:22:26;14.10;66.69
79698;SHT31;69168;42.708;23.286;2023-05-24T02:24:52;14.14;66.40
79698;SHT31;69168;42.708;23.286;2023-05-24T02:27:18;14.11;66.57
79698;SHT31;69168;42.708;23.286;2023-05-24T02:29:44;14.07;66.64
79698;SHT31;69168;42.708;23.286;2023-05-24T02:32:09;14.10;66.51
79698;SHT31;69168;42.708;23.286;2023-05-24T02:34:34;14.03;66.95
79698;SHT31;69168;42.708;23.286;2023-05-24T02:37:00;14.04;67.18
79698;SHT31;69168;42.708;23.286;2023-05-24T02:39:26;13.97;67.50
79698;SHT31;69168;42.708;23.286;2023-05-24T02:41:52;13.95;67.64
79698;SHT31;69168;42.708;23.286;2023-05-24T02:44:17;13.87;67.68
79698;SHT31;69168;42.708;23.286;2023-05-24T02:46:43;13.81;67.58
79698;SHT31;69168;42.708;23.286;2023-05-24T02:49:08;13.70;67.78
79698;SHT31;69168;42.708;23.286;2023-05-24T02:51:34;13.69;67.91
79698;SHT31;69168;42.708;23.286;2023-05-24T02:54:01;13.69;67.82
79698;SHT31;69168;42.708;23.286;2023-05-24T02:56:27;13.74;67.69
79698;SHT31;69168;42.708;23.286;2023-05-24T02:58:53;13.69;67.75
79698;SHT31;69168;42.708;23.286;2023-05-24T03:01:20;13.65;67.72
79698;SHT31;69168;42.708;23.286;2023-05-24T03:03:46;13.55;68.16
79698;SHT31;69168;42.708;23.286;2023-05-24T03:06:12;13.50;68.33
79698;SHT31;69168;42.708;23.286;2023-05-24T03:08:38;13.50;68.42
79698;SHT31;69168;42.708;23.286;2023-05-24T03:11:04;13.30;69.13
79698;SHT31;69168;42.708;23.286;2023-05-24T03:13:30;13.35;69.19
79698;SHT31;69168;42.708;23.286;2023-05-24T03:15:55;13.36;69.23
79698;SHT31;69168;42.708;23.286;2023-05-24T03:18:21;13.10;70.04
79698;SHT31;69168;42.708;23.286;2023-05-24T03:20:46;13.22;69.72
79698;SHT31;69168;42.708;23.286;2023-05-24T03:23:12;13.30;69.45
79698;SHT31;69168;42.708;23.286;2023-05-24T03:25:39;13.42;68.88
79698;SHT31;69168;42.708;23.286;2023-05-24T03:28:04;13.49;68.79
79698;SHT31;69168;42.708;23.286;2023-05-24T03:30:31;13.52;68.62
79698;SHT31;69168;42.708;23.286;2023-05-24T03:32:57;13.53;68.31
79698;SHT31;69168;42.708;23.286;2023-05-24T03:35:22;13.52;68.78
79698;SHT31;69168;42.708;23.286;2023-05-24T03:37:48;13.50;69.07
79698;SHT31;69168;42.708;23.286;2023-05-24T03:40:14;13.57;69.03
79698;SHT31;69168;42.708;23.286;2023-05-24T03:42:39;13.59;68.66
79698;SHT31;69168;42.708;23.286;2023-05-24T03:45:05;13.62;68.17
79698;SHT31;69168;42.708;23.286;2023-05-24T03:47:31;13.67;68.68
79698;SHT31;69168;42.708;23.286;2023-05-24T03:49:56;13.59;68.64
79698;SHT31;69168;42.708;23.286;2023-05-24T03:52:22;13.55;69.10
79698;SHT31;69168;42.708;23.286;2023-05-24T03:54:48;13.36;69.34
79698;SHT31;69168;42.708;23.286;2023-05-24T03:57:14;13.25;69.98
79698;SHT31;69168;42.708;23.286;2023-05-24T03:59:39;13.36;69.81
79698;SHT31;69168;42.708;23.286;2023-05-24T04:02:05;13.50;69.35
79698;SHT31;69168;42.708;23.286;2023-05-24T04:04:30;13.65;69.44
79698;SHT31;69168;42.708;23.286;2023-05-24T04:06:56;13.66;69.23
79698;SHT31;69168;42.708;23.286;2023-05-24T04:09:22;13.55;69.66
79698;SHT31;69168;42.708;23.286;2023-05-24T04:11:48;13.45;70.01
79698;SHT31;69168;42.708;23.286;2023-05-24T04:14:14;13.49;69.99
79698;SHT31;69168;42.708;23.286;2023-05-24T04:16:39;13.50;70.42
79698;SHT31;69168;42.708;23.286;2023-05-24T04:19:06;13.63;70.23
79698;SHT31;69168;42.708;23.286;2023-05-24T04:21:32;13.70;69.82
79698;SHT31;69168;42.708;23.286;2023-05-24T04:23:58;13.88;69.34
79698;SHT31;69168;42.708;23.286;2023-05-24T04:26:28;13.94;68.96
79698;SHT31;69168;42.708;23.286;2023-05-24T04:28:54;14.04;69.11
79698;SHT31;69168;42.708;23.286;2023-05-24T04:31:20;13.85;69.70
79698;SHT31;69168;42.708;23.286;2023-05-24T04:33:45;13.97;69.07
79698;SHT31;69168;42.708;23.286;2023-05-24T04:36:12;13.98;69.43
79698;SHT31;69168;42.708;23.286;2023-05-24T04:38:38;13.91;69.17
79698;SHT31;69168;42.708;23.286;2023-05-24T04:41:05;14.01;68.69
79698;SHT31;69168;42.708;23.286;2023-05-24T04:43:31;13.98;68.82
79698;SHT31;69168;42.708;23.286;2023-05-24T04:45:57;14.08;68.61
79698;SHT31;69168;42.708;23.286;2023-05-24T04:48:23;14.12;68.67
79698;SHT31;69168;42.708;23.286;2023-05-24T04:50:55;14.29;68.01
79698;SHT31;69168;42.708;23.286;2023-05-24T04:53:22;14.32;67.96
79698;SHT31;69168;42.708;23.286;2023-05-24T04:55:48;14.24;68.26
79698;SHT31;69168;42.708;23.286;2023-05-24T04:58:14;14.33;68.00
79698;SHT31;69168;42.708;23.286;2023-05-24T05:00:40;14.40;67.60
79698;SHT31;69168;42.708;23.286;2023-05-24T05:03:06;14.39;67.55
79698;SHT31;69168;42.708;23.286;2023-05-24T05:05:31;14.53;66.60
79698;SHT31;69168;42.708;23.286;2023-05-24T05:07:57;14.43;66.85
79698;SHT31;69168;42.708;23.286;2023-05-24T05:10:22;14.56;66.55
79698;SHT31;69168;42.708;23.286;2023-05-24T05:12:48;14.48;67.06
79698;SHT31;69168;42.708;23.286;2023-05-24T05:15:13;14.52;66.90
79698;SHT31;69168;42.708;23.286;2023-05-24T05:17:39;14.45;67.04
79698;SHT31;69168;42.708;23.286;2023-05-24T05:20:05;14.48;67.45
79698;SHT31;69168;42.708;23.286;2023-05-24T05:22:31;14.40;67.69
79698;SHT31;69168;42.708;23.286;2023-05-24T05:24:57;14.50;67.49
79698;SHT31;69168;42.708;23.286;2023-05-24T05:27:22;14.52;67.22
79698;SHT31;69168;42.708;23.286;2023-05-24T05:29:47;14.59;67.26
79698;SHT31;69168;42.708;23.286;2023-05-24T05:32:14;14.73;66.99
79698;SHT31;69168;42.708;23.286;2023-05-24T05:34:39;14.81;67.24
79698;SHT31;69168;42.708;23.286;2023-05-24T05:37:06;14.87;67.13
79698;SHT31;69168;42.708;23.286;2023-05-24T05:39:31;14.95;66.84
79698;SHT31;69168;42.708;23.286;2023-05-24T05:41:57;15.03;66.87
79698;SHT31;69168;42.708;23.286;2023-05-24T05:44:23;15.12;66.53
79698;SHT31;69168;42.708;23.286;2023-05-24T05:46:48;15.18;66.32
79698;SHT31;69168;42.708;23.286;2023-05-24T05:49:14;15.24;66.00
79698;SHT31;69168;42.708;23.286;2023-05-24T05:51:43;15.28;66.07
79698;SHT31;69168;42.708;23.286;2023-05-24T05:54:09;15.35;65.84
79698;SHT31;69168;42.708;23.286;2023-05-24T05:56:39;15.42;65.63
79698;SHT31;69168;42.708;23.286;2023-05-24T05:59:10;15.52;65.70
79698;SHT31;69168;42.708;23.286;2023-05-24T06:01:35;15.41;65.43
79698;SHT31;69168;42.708;23.286;2023-05-24T06:04:01;15.43;65.40
79698;SHT31;69168;42.708;23.286;2023-05-24T06:06:26;15.50;65.03
79698;SHT31;69168;42.708;23.286;2023-05-24T06:08:52;15.50;65.17
79698;SHT31;69168;42.708;23.286;2023-05-24T06:11:17;15.60;65.22
79698;SHT31;69168;42.708;23.286;2023-05-24T06:13:42;15.60;65.47
79698;SHT31;69168;42.708;23.286;2023-05-24T06:16:08;15.58;65.09
79698;SHT31;69168;42.708;23.286;2023-05-24T06:18:34;15.71;64.46
79698;SHT31;69168;42.708;23.286;2023-05-24T06:21:00;15.70;64.57
79698;SHT31;69168;42.708;23.286;2023-05-24T06:23:26;15.85;64.51
79698;SHT31;69168;42.708;23.286;2023-05-24T06:25:51;15.94;64.31
79698;SHT31;69168;42.708;23.286;2023-05-24T06:28:16;16.08;64.18
79698;SHT31;69168;42.708;23.286;2023-05-24T06:30:42;16.14;64.67
79698;SHT31;69168;42.708;23.286;2023-05-24T06:33:07;16.17;64.20
79698;SHT31;69168;42.708;23.286;2023-05-24T06:35:33;16.22;63.55
79698;SHT31;69168;42.708;23.286;2023-05-24T06:37:58;16.32;63.62
79698;SHT31;69168;42.708;23.286;2023-05-24T06:40:24;16.41;63.46
79698;SHT31;69168;42.708;23.286;2023-05-24T06:42:49;16.47;62.80
79698;SHT31;69168;42.708;23.286;2023-05-24T06:45:15;16.53;63.13
79698;SHT31;69168;42.708;23.286;2023-05-24T06:47:40;16.72;62.29
79698;SHT31;69168;42.708;23.286;2023-05-24T06:50:07;16.73;62.12
79698;SHT31;69168;42.708;23.286;2023-05-24T06:52:32;16.84;61.88
79698;SHT31;69168;42.708;23.286;2023-05-24T06:54:58;16.93;61.82
79698;SHT31;69168;42.708;23.286;2023-05-24T06:57:23;16.93;61.86
79698;SHT31;69168;42.708;23.286;2023-05-24T06:59:49;17.02;62.13
79698;SHT31;69168;42.708;23.286;2023-05-24T07:02:15;17.04;62.30
79698;SHT31;69168;42.708;23.286;2023-05-24T07:22:55;17.39;61.47
79698;SHT31;69168;42.708;23.286;2023-05-24T07:25:21;17.45;61.47
79698;SHT31;69168;42.708;23.286;2023-05-24T07:27:47;17.52;61.39
79698;SHT31;69168;42.708;23.286;2023-05-24T07:30:12;17.62;61.36
79698;SHT31;69168;42.708;23.286;2023-05-24T07:32:38;17.68;61.29
79698;SHT31;69168;42.708;23.286;2023-05-24T07:35:04;17.85;61.27
79698;SHT31;69168;42.708;23.286;2023-05-24T07:37:29;17.83;60.49
79698;SHT31;69168;42.708;23.286;2023-05-24T07:39:55;17.87;60.27
79698;SHT31;69168;42.708;23.286;2023-05-24T07:42:23;17.96;60.33
79698;SHT31;69168;42.708;23.286;2023-05-24T07:44:49;18.03;59.95
79698;SHT31;69168;42.708;23.286;2023-05-24T07:47:14;18.10;59.41
79698;SHT31;69168;42.708;23.286;2023-05-24T07:49:40;18.08;59.51
79698;SHT31;69168;42.708;23.286;2023-05-24T07:52:05;18.14;59.37
79698;SHT31;69168;42.708;23.286;2023-05-24T07:54:31;18.25;59.26
79698;SHT31;69168;42.708;23.286;2023-05-24T07:56:56;18.42;58.32
79698;SHT31;69168;42.708;23.286;2023-05-24T07:59:22;18.42;56.15
79698;SHT31;69168;42.708;23.286;2023-05-24T08:01:48;18.35;56.87
79698;SHT31;69168;42.708;23.286;2023-05-24T08:04:14;18.48;56.12
79698;SHT31;69168;42.708;23.286;2023-05-24T08:06:40;18.55;56.04
79698;SHT31;69168;42.708;23.286;2023-05-24T08:09:06;18.56;56.84
79698;SHT31;69168;42.708;23.286;2023-05-24T08:11:33;18.70;57.03
79698;SHT31;69168;42.708;23.286;2023-05-24T08:13:59;18.75;56.13
79698;SHT31;69168;42.708;23.286;2023-05-24T08:16:24;18.77;55.18
79698;SHT31;69168;42.708;23.286;2023-05-24T08:18:50;18.82;55.01
79698;SHT31;69168;42.708;23.286;2023-05-24T08:21:16;18.92;52.91
79698;SHT31;69168;42.708;23.286;2023-05-24T08:23:42;19.00;53.99
79698;SHT31;69168;42.708;23.286;2023-05-24T08:26:07;19.00;50.19
79698;SHT31;69168;42.708;23.286;2023-05-24T08:28:33;19.20;50.96
79698;SHT31;69168;42.708;23.286;2023-05-24T08:30:59;19.27;49.42
79698;SHT31;69168;42.708;23.286;2023-05-24T08:33:24;19.31;49.22
79698;SHT31;69168;42.708;23.286;2023-05-24T08:35:50;19.39;48.20
79698;SHT31;69168;42.708;23.286;2023-05-24T08:38:16;19.39;48.49
79698;SHT31;69168;42.708;23.286;2023-05-24T08:40:42;19.41;49.74
79698;SHT31;69168;42.708;23.286;2023-05-24T08:43:08;19.52;51.61
79698;SHT31;69168;42.708;23.286;2023-05-24T08:45:37;19.61;50.56
79698;SHT31;69168;42.708;23.286;2023-05-24T08:48:07;19.65;49.65
79698;SHT31;69168;42.708;23.286;2023-05-24T08:50:33;19.82;48.25
79698;SHT31;69168;42.708;23.286;2023-05-24T08:52:59;19.80;46.54
79698;SHT31;69168;42.708;23.286;2023-05-24T08:55:29;19.80;45.38
79698;SHT31;69168;42.708;23.286;2023-05-24T08:57:55;20.18;42.91
79698;SHT31;69168;42.708;23.286;2023-05-24T09:00:21;20.31;42.22
79698;SHT31;69168;42.708;23.286;2023-05-24T09:02:48;20.20;42.88
79698;SHT31;69168;42.708;23.286;2023-05-24T09:05:14;20.09;45.17
79698;SHT31;69168;42.708;23.286;2023-05-24T09:07:47;20.14;47.16
79698;SHT31;69168;42.708;23.286;2023-05-24T09:10:13;20.16;47.37
79698;SHT31;69168;42.708;23.286;2023-05-24T09:12:43;20.23;45.38
79698;SHT31;69168;42.708;23.286;2023-05-24T09:15:10;20.27;46.60
79698;SHT31;69168;42.708;23.286;2023-05-24T09:17:36;20.35;47.20
79698;SHT31;69168;42.708;23.286;2023-05-24T09:20:02;20.33;47.04
79698;SHT31;69168;42.708;23.286;2023-05-24T09:22:31;20.41;45.74
79698;SHT31;69168;42.708;23.286;2023-05-24T09:25:01;20.48;47.13
79698;SHT31;69168;42.708;23.286;2023-05-24T09:27:27;20.68;45.12
79698;SHT31;69168;42.708;23.286;2023-05-24T09:29:54;20.76;46.23
79698;SHT31;69168;42.708;23.286;2023-05-24T09:32:21;20.88;45.72
79698;SHT31;69168;42.708;23.286;2023-05-24T09:34:53;20.88;44.73
79698;SHT31;69168;42.708;23.286;2023-05-24T09:37:20;20.98;44.90
79698;SHT31;69168;42.708;23.286;2023-05-24T09:39:47;21.03;45.92
79698;SHT31;69168;42.708;23.286;2023-05-24T09:55:49;21.66;41.53
79698;SHT31;69168;42.708;23.286;2023-05-24T09:58:15;21.72;40.62
79698;SHT31;69168;42.708;23.286;2023-05-24T10:00:41;21.78;39.76
79698;SHT31;69168;42.708;23.286;2023-05-24T10:03:08;21.95;39.92
79698;SHT31;69168;42.708;23.286;2023-05-24T10:05:41;22.00;38.68
79698;SHT31;69168;42.708;23.286;2023-05-24T10:08:07;22.00;39.18
79698;SHT31;69168;42.708;23.286;2023-05-24T10:10:34;22.10;40.44
79698;SHT31;69168;42.708;23.286;2023-05-24T10:13:01;22.19;39.87
79698;SHT31;69168;42.708;23.286;2023-05-24T10:15:27;22.29;38.12
79698;SHT31;69168;42.708;23.286;2023-05-24T10:17:53;22.40;37.94
79698;SHT31;69168;42.708;23.286;2023-05-24T10:20:19;22.65;36.69
79698;SHT31;69168;42.708;23.286;2023-05-24T10:22:46;22.68;35.90
79698;SHT31;69168;42.708;23.286;2023-05-24T10:25:27;22.69;35.71
79698;SHT31;69168;42.708;23.286;2023-05-24T10:27:57;22.78;35.83
79698;SHT31;69168;42.708;23.286;2023-05-24T10:33:11;22.95;37.81
79698;SHT31;69168;42.708;23.286;2023-05-24T10:35:38;23.05;38.01
79698;SHT31;69168;42.708;23.286;2023-05-24T10:38:05;23.22;35.03
79698;SHT31;69168;42.708;23.286;2023-05-24T10:40:32;23.26;36.08
79698;SHT31;69168;42.708;23.286;2023-05-24T10:42:58;23.42;36.98
79698;SHT31;69168;42.708;23.286;2023-05-24T10:47:49;23.75;37.84
79698;SHT31;69168;42.708;23.286;2023-05-24T10:50:17;23.91;36.63
79698;SHT31;69168;42.708;23.286;2023-05-24T10:52:42;24.09;36.54
79698;SHT31;69168;42.708;23.286;2023-05-24T10:55:09;24.15;36.36
79698;SHT31;69168;42.708;23.286;2023-05-24T10:57:36;24.30;35.39
79698;SHT31;69168;42.708;23.286;2023-05-24T11:03:00;24.44;36.03
79698;SHT31;69168;42.708;23.286;2023-05-24T11:05:54;24.60;36.72
79698;SHT31;69168;42.708;23.286;2023-05-24T11:11:23;24.61;32.37
79698;SHT31;69168;42.708;23.286;2023-05-24T11:13:54;24.95;34.21
79698;SHT31;69168;42.708;23.286;2023-05-24T11:16:35;25.25;34.08
79698;SHT31;69168;42.708;23.286;2023-05-24T11:19:17;25.57;33.55
79698;SHT31;69168;42.708;23.286;2023-05-24T11:21:46;25.80;30.49
79698;SHT31;69168;42.708;23.286;2023-05-24T11:24:12;25.94;30.52
79698;SHT31;69168;42.708;23.286;2023-05-24T11:26:38;26.11;30.98
79698;SHT31;69168;42.708;23.286;2023-05-24T11:29:04;26.40;31.69
79698;SHT31;69168;42.708;23.286;2023-05-24T11:31:32;26.76;31.59
79698;SHT31;69168;42.708;23.286;2023-05-24T11:33:59;26.98;30.98
79698;SHT31;69168;42.708;23.286;2023-05-24T11:36:25;27.29;31.71
79698;SHT31;69168;42.708;23.286;2023-05-24T11:38:53;27.55;31.40
79698;SHT31;69168;42.708;23.286;2023-05-24T11:41:18;27.87;30.18
79698;SHT31;69168;42.708;23.286;2023-05-24T11:43:44;27.66;27.83
79698;SHT31;69168;42.708;23.286;2023-05-24T11:46:10;27.18;28.72
79698;SHT31;69168;42.708;23.286;2023-05-24T11:48:35;27.39;30.40
79698;SHT31;69168;42.708;23.286;2023-05-24T11:51:01;27.66;30.42
79698;SHT31;69168;42.708;23.286;2023-05-24T11:53:29;28.08;30.05
79698;SHT31;69168;42.708;23.286;2023-05-24T11:55:55;28.55;29.83
79698;SHT31;69168;42.708;23.286;2023-05-24T11:58:43;28.96;29.97
79698;SHT31;69168;42.708;23.286;2023-05-24T12:01:24;29.25;29.26
79698;SHT31;69168;42.708;23.286;2023-05-24T12:03:51;29.41;28.56
79698;SHT31;69168;42.708;23.286;2023-05-24T12:06:20;29.75;27.84
79698;SHT31;69168;42.708;23.286;2023-05-24T12:08:46;29.80;27.19
79698;SHT31;69168;42.708;23.286;2023-05-24T12:11:12;29.83;27.19
79698;SHT31;69168;42.708;23.286;2023-05-24T12:13:39;30.32;26.64
79698;SHT31;69168;42.708;23.286;2023-05-24T12:16:05;30.62;26.70
79698;SHT31;69168;42.708;23.286;2023-05-24T12:18:30;30.86;26.35
79698;SHT31;69168;42.708;23.286;2023-05-24T12:20:56;31.04;26.28
79698;SHT31;69168;42.708;23.286;2023-05-24T12:23:25;31.29;26.14
79698;SHT31;69168;42.708;23.286;2023-05-24T12:25:59;31.30;27.10
79698;SHT31;69168;42.708;23.286;2023-05-24T12:28:51;32.12;25.14
79698;SHT31;69168;42.708;23.286;2023-05-24T12:31:18;31.93;26.53
79698;SHT31;69168;42.708;23.286;2023-05-24T12:33:43;31.81;25.83
79698;SHT31;69168;42.708;23.286;2023-05-24T12:36:09;31.21;25.02
79698;SHT31;69168;42.708;23.286;2023-05-24T12:38:34;32.10;24.63
79698;SHT31;69168;42.708;23.286;2023-05-24T12:41:00;32.22;24.86
79698;SHT31;69168;42.708;23.286;2023-05-24T12:43:25;32.43;24.54
79698;SHT31;69168;42.708;23.286;2023-05-24T12:45:50;32.12;24.74
79698;SHT31;69168;42.708;23.286;2023-05-24T12:48:19;32.50;24.19
79698;SHT31;69168;42.708;23.286;2023-05-24T12:50:45;31.31;25.81
79698;SHT31;69168;42.708;23.286;2023-05-24T12:53:10;30.82;23.78
79698;SHT31;69168;42.708;23.286;2023-05-24T12:55:36;29.89;26.48
79698;SHT31;69168;42.708;23.286;2023-05-24T12:58:01;29.39;27.28
79698;SHT31;69168;42.708;23.286;2023-05-24T13:00:32;29.61;27.12
79698;SHT31;69168;42.708;23.286;2023-05-24T13:02:57;30.51;25.80
79698;SHT31;69168;42.708;23.286;2023-05-24T13:05:25;31.17;25.72
79698;SHT31;69168;42.708;23.286;2023-05-24T13:07:51;31.41;25.10
79698;SHT31;69168;42.708;23.286;2023-05-24T13:10:17;30.90;25.62
79698;SHT31;69168;42.708;23.286;2023-05-24T13:12:45;30.13;26.84
79698;SHT31;69168;42.708;23.286;2023-05-24T13:15:11;29.49;27.26
79698;SHT31;69168;42.708;23.286;2023-05-24T13:17:36;29.31;27.41
79698;SHT31;69168;42.708;23.286;2023-05-24T13:20:04;29.15;28.25
79698;SHT31;69168;42.708;23.286;2023-05-24T13:22:34;28.77;28.77
79698;SHT31;69168;42.708;23.286;2023-05-24T13:25:00;28.51;29.58
79698;SHT31;69168;42.708;23.286;2023-05-24T13:27:28;27.63;30.38
79698;SHT31;69168;42.708;23.286;2023-05-24T13:29:53;27.37;31.25
79698;SHT31;69168;42.708;23.286;2023-05-24T13:32:19;27.21;31.67
79698;SHT31;69168;42.708;23.286;2023-05-24T13:34:45;27.02;32.36
79698;SHT31;69168;42.708;23.286;2023-05-24T13:37:10;26.86;32.65
79698;SHT31;69168;42.708;23.286;2023-05-24T13:39:36;26.79;32.79
79698;SHT31;69168;42.708;23.286;2023-05-24T13:42:02;26.38;34.14
79698;SHT31;69168;42.708;23.286;2023-05-24T13:44:28;26.01;36.18
79698;SHT31;69168;42.708;23.286;2023-05-24T13:46:55;25.11;40.92
79698;SHT31;69168;42.708;23.286;2023-05-24T13:49:21;24.12;45.22
79698;SHT31;69168;42.708;23.286;2023-05-24T13:51:46;23.19;46.77
79698;SHT31;69168;42.708;23.286;2023-05-24T13:54:12;22.89;46.16
79698;SHT31;69168;42.708;23.286;2023-05-24T13:56:38;22.67;46.03
79698;SHT31;69168;42.708;23.286;2023-05-24T13:59:05;22.63;45.19
79698;SHT31;69168;42.708;23.286;2023-05-24T14:01:31;22.44;47.27
79698;SHT31;69168;42.708;23.286;2023-05-24T14:03:59;22.35;44.88
79698;SHT31;69168;42.708;23.286;2023-05-24T14:06:24;22.33;48.13
79698;SHT31;69168;42.708;23.286;2023-05-24T14:08:50;22.27;44.29
79698;SHT31;69168;42.708;23.286;2023-05-24T14:11:16;22.30;41.05
79698;SHT31;69168;42.708;23.286;2023-05-24T14:13:42;22.41;44.70
79698;SHT31;69168;42.708;23.286;2023-05-24T14:16:08;22.36;43.99
79698;SHT31;69168;42.708;23.286;2023-05-24T14:18:33;22.39;44.02
79698;SHT31;69168;42.708;23.286;2023-05-24T14:21:00;22.44;44.13
79698;SHT31;69168;42.708;23.286;2023-05-24T14:23:26;22.48;44.65
79698;SHT31;69168;42.708;23.286;2023-05-24T14:25:51;22.50;44.17
79698;SHT31;69168;42.708;23.286;2023-05-24T14:28:17;22.57;43.94
79698;SHT31;69168;42.708;23.286;2023-05-24T14:30:43;22.75;42.92
79698;SHT31;69168;42.708;23.286;2023-05-24T14:33:08;22.85;41.70
79698;SHT31;69168;42.708;23.286;2023-05-24T14:35:37;22.84;43.39
79698;SHT31;69168;42.708;23.286;2023-05-24T14:38:08;22.82;42.63
79698;SHT31;69168;42.708;23.286;2023-05-24T14:40:35;22.95;43.36
79698;SHT31;69168;42.708;23.286;2023-05-24T14:43:04;23.26;43.18
79698;SHT31;69168;42.708;23.286;2023-05-24T14:45:31;24.33;42.55
79698;SHT31;69168;42.708;23.286;2023-05-24T14:47:57;25.12;42.12
79698;SHT31;69168;42.708;23.286;2023-05-24T14:50:23;26.02;41.63
79698;SHT31;69168;42.708;23.286;2023-05-24T14:52:48;26.67;39.69
79698;SHT31;69168;42.708;23.286;2023-05-24T14:55:14;27.24;39.46
79698;SHT31;69168;42.708;23.286;2023-05-24T14:57:40;27.70;37.69
79698;SHT31;69168;42.708;23.286;2023-05-24T15:00:07;28.38;36.61
79698;SHT31;69168;42.708;23.286;2023-05-24T15:02:32;28.38;36.16
79698;SHT31;69168;42.708;23.286;2023-05-24T15:04:59;28.66;36.23
79698;SHT31;69168;42.708;23.286;2023-05-24T15:07:24;28.49;35.88
79698;SHT31;69168;42.708;23.286;2023-05-24T15:09:50;28.93;35.61
79698;SHT31;69168;42.708;23.286;2023-05-24T15:12:16;29.03;35.45
79698;SHT31;69168;42.708;23.286;2023-05-24T15:14:41;29.22;34.82
79698;SHT31;69168;42.708;23.286;2023-05-24T15:17:08;29.49;34.98
79698;SHT31;69168;42.708;23.286;2023-05-24T15:19:33;29.85;33.14
79698;SHT31;69168;42.708;23.286;2023-05-24T15:21:58;30.11;30.85
79698;SHT31;69168;42.708;23.286;2023-05-24T15:24:24;30.35;31.23
79698;SHT31;69168;42.708;23.286;2023-05-24T15:26:49;30.61;30.65
79698;SHT31;69168;42.708;23.286;2023-05-24T15:29:15;30.78;30.17
79698;SHT31;69168;42.708;23.286;2023-05-24T15:31:41;30.76;30.29
79698;SHT31;69168;42.708;23.286;2023-05-24T15:34:07;30.90;30.47
79698;SHT31;69168;42.708;23.286;2023-05-24T15:36:32;30.32;30.03
79698;SHT31;69168;42.708;23.286;2023-05-24T15:38:57;29.70;30.04
79698;SHT31;69168;42.708;23.286;2023-05-24T15:41:23;30.00;30.23
79698;SHT31;69168;42.708;23.286;2023-05-24T15:43:51;30.49;29.41
79698;SHT31;69168;42.708;23.286;2023-05-24T15:46:19;30.51;28.61
79698;SHT31;69168;42.708;23.286;2023-05-24T15:48:45;29.93;28.99
79698;SHT31;69168;42.708;23.286;2023-05-24T15:51:10;29.51;29.18
79698;SHT31;69168;42.708;23.286;2023-05-24T15:53:36;29.25;29.72
79698;SHT31;69168;42.708;23.286;2023-05-24T15:56:01;29.34;29.16
79698;SHT31;69168;42.708;23.286;2023-05-24T15:58:27;29.24;29.66
79698;SHT31;69168;42.708;23.286;2023-05-24T16:00:52;28.84;30.28
79698;SHT31;69168;42.708;23.286;2023-05-24T16:03:18;28.53;30.47
79698;SHT31;69168;42.708;23.286;2023-05-24T16:05:44;27.93;30.74
79698;SHT31;69168;42.708;23.286;2023-05-24T16:08:16;27.63;31.28